Time;durP1;ratioP1;P1;durP2;ratioP2;P2;SDS_P1;SDS_P2;PMS_P1;PMS_P2;Temp;Humidity;BMP_temperature;BMP_pressure;BME280_temperature;BME280_humidity;BME280_pressure;Samples;Min_cycle;Max_cycle;Signal;HPM_P1;HPM_P2
2022/03/29 00:01:27;;;;;;;14.90;9.93;;;;;;;4.78;100.00;96163.06;5030371;28;20474;-76
2022/03/29 00:03:54;;;;;;;14.70;11.07;;;;;;;4.28;100.00;96131.59;5015615;28;20454;-76
2022/03/29 00:06:21;;;;;;;13.47;9.30;;;;;;;4.21;100.00;96135.66;5010395;28;20989;-76
2022/03/29 00:08:47;;;;;;;16.00;11.20;;;;;;;4.33;100.00;96146.41;5010623;28;20476;-76
2022/03/29 00:11:14;;;;;;;18.33;13.70;;;;;;;4.00;100.00;96130.00;5011593;28;20449;-76
2022/03/29 00:13:41;;;;;;;17.97;11.17;;;;;;;4.09;100.00;96155.19;5010257;28;20535;-76
2022/03/29 00:16:07;;;;;;;13.90;11.07;;;;;;;4.41;100.00;96159.63;5020604;28;20450;-76
2022/03/29 00:18:34;;;;;;;18.93;11.67;;;;;;;4.13;100.00;96153.56;5030056;28;20438;-76
2022/03/29 00:21:01;;;;;;;16.10;11.83;;;;;;;4.38;100.00;96146.31;5008519;28;20445;-76
2022/03/29 00:23:28;;;;;;;19.60;11.60;;;;;;;4.38;100.00;96117.53;5023634;28;20469;-76
2022/03/29 00:25:55;;;;;;;18.47;12.00;;;;;;;4.70;100.00;96140.22;5008169;28;20516;-76
2022/03/29 00:28:21;;;;;;;17.37;11.60;;;;;;;4.55;100.00;96132.66;5035194;28;20448;-76
2022/03/29 00:30:48;;;;;;;15.87;11.43;;;;;;;4.73;100.00;96143.00;5008945;28;20444;-76
2022/03/29 00:33:15;;;;;;;16.37;12.07;;;;;;;4.74;100.00;96143.78;5006755;28;20437;-76
2022/03/29 00:35:41;;;;;;;26.43;16.63;;;;;;;4.66;100.00;96132.13;5040574;28;20544;-76
2022/03/29 00:38:08;;;;;;;25.70;16.27;;;;;;;4.26;100.00;96112.00;5024242;28;20511;-75
2022/03/29 00:40:34;;;;;;;22.03;12.70;;;;;;;3.99;100.00;96125.81;5013464;28;20446;-75
2022/03/29 00:43:01;;;;;;;17.23;11.20;;;;;;;3.54;100.00;96094.94;4999956;28;20507;-74
2022/03/29 00:45:28;;;;;;;16.53;12.53;;;;;;;3.69;100.00;96112.22;5019007;28;21102;-75
2022/03/29 00:47:54;;;;;;;14.67;10.83;;;;;;;3.90;100.00;96088.34;5006845;28;20544;-74
2022/03/29 00:50:21;;;;;;;22.63;11.90;;;;;;;4.03;100.00;96085.75;5025145;28;20509;-75
2022/03/29 00:52:48;;;;;;;18.37;11.23;;;;;;;3.88;100.00;96100.94;5029510;28;21039;-74
2022/03/29 00:55:15;;;;;;;16.90;12.07;;;;;;;3.93;100.00;96090.38;5018531;28;20547;-74
2022/03/29 00:57:45;;;;;;;13.90;10.93;;;;;;;3.99;100.00;96089.22;5024528;28;20517;-74
2022/03/29 01:00:14;;;;;;;15.07;11.80;;;;;;;4.05;100.00;96103.75;5031289;28;20483;-75
2022/03/29 01:02:43;;;;;;;16.23;10.90;;;;;;;4.11;100.00;96082.44;5018550;28;20462;-76
2022/03/29 01:05:09;;;;;;;13.23;10.83;;;;;;;4.28;100.00;96102.03;5015969;28;20456;-75
2022/03/29 01:07:36;;;;;;;12.67;10.10;;;;;;;3.82;100.00;96084.53;5016524;28;20450;-75
2022/03/29 01:10:04;;;;;;;16.70;11.10;;;;;;;3.87;100.00;96076.59;5018575;28;20536;-75
2022/03/29 01:12:31;;;;;;;17.90;11.47;;;;;;;3.92;100.00;96070.53;5023225;28;21051;-75
2022/03/29 01:15:00;;;;;;;14.70;11.87;;;;;;;4.35;100.00;96103.19;5022544;28;20523;-75
2022/03/29 01:17:40;;;;;;;17.60;12.40;;;;;;;4.35;100.00;96099.78;5010040;28;20532;-74
2022/03/29 01:20:18;;;;;;;17.03;11.40;;;;;;;4.03;100.00;96093.59;5011753;28;20539;-74
2022/03/29 01:22:47;;;;;;;15.03;10.93;;;;;;;4.27;100.00;96090.00;5029711;28;20559;-74
2022/03/29 01:25:33;;;;;;;18.03;11.00;;;;;;;4.37;100.00;96089.81;5016396;28;20464;-74
2022/03/29 01:28:02;;;;;;;15.43;11.50;;;;;;;4.15;100.00;96091.28;5017784;28;20468;-74
2022/03/29 01:30:29;;;;;;;15.80;11.00;;;;;;;3.94;100.00;96089.31;5003790;28;20571;-75
2022/03/29 01:32:58;;;;;;;15.33;11.77;;;;;;;3.88;100.00;96053.88;5016165;28;20536;-75
2022/03/29 01:35:27;;;;;;;18.13;11.03;;;;;;;4.29;100.00;96077.41;5027566;28;20558;-75
2022/03/29 01:37:54;;;;;;;13.80;11.47;;;;;;;3.85;100.00;96047.34;5020210;28;20535;-75
2022/03/29 01:40:24;;;;;;;16.90;10.10;;;;;;;3.96;100.00;96067.03;5030999;28;20440;-75
2022/03/29 01:42:55;;;;;;;16.57;10.57;;;;;;;4.19;100.00;96056.69;5021867;28;20511;-75
2022/03/29 01:45:25;;;;;;;16.07;11.67;;;;;;;3.80;100.00;96018.69;5029990;28;20541;-75
2022/03/29 01:47:52;;;;;;;13.50;10.47;;;;;;;3.35;100.00;96015.84;5017758;28;20917;-75
2022/03/29 01:50:19;;;;;;;11.50;9.83;;;;;;;3.69;100.00;96044.25;5022478;28;20970;-75
2022/03/29 01:52:47;;;;;;;14.70;10.53;;;;;;;3.73;100.00;96015.69;5021907;28;20495;-75
2022/03/29 01:55:17;;;;;;;14.17;10.40;;;;;;;3.97;100.00;96039.03;5017355;28;20465;-75
2022/03/29 01:57:45;;;;;;;12.87;11.53;;;;;;;3.91;100.00;96030.53;5026935;28;20452;-75
2022/03/29 02:00:30;;;;;;;14.10;10.37;;;;;;;4.08;100.00;96048.25;5020630;28;20534;-75
2022/03/29 02:02:59;;;;;;;16.30;11.20;;;;;;;4.17;100.00;96038.66;5015854;28;20925;-75
2022/03/29 02:05:26;;;;;;;16.57;12.30;;;;;;;3.83;100.00;96033.81;5029316;28;20887;-75
2022/03/29 02:07:52;;;;;;;21.23;10.67;;;;;;;3.79;100.00;96011.91;5008311;28;20465;-75
2022/03/29 02:10:21;;;;;;;16.30;11.60;;;;;;;4.07;100.00;96031.00;5023438;28;20892;-75
2022/03/29 02:12:50;;;;;;;15.93;11.80;;;;;;;3.91;100.00;96024.53;5028295;28;20446;-75
2022/03/29 02:15:17;;;;;;;12.80;10.70;;;;;;;3.88;100.00;96009.41;5025243;28;20846;-75
2022/03/29 02:17:45;;;;;;;17.30;10.90;;;;;;;3.92;100.00;95990.22;5019023;28;20531;-76
2022/03/29 02:20:15;;;;;;;17.27;10.50;;;;;;;4.01;100.00;96014.66;5022103;28;20426;-74
2022/03/29 02:22:42;;;;;;;19.47;11.73;;;;;;;3.59;100.00;95960.78;5032135;28;20894;-75
2022/03/29 02:25:12;;;;;;;16.10;11.70;;;;;;;3.88;100.00;95998.97;5019894;28;20551;-75
2022/03/29 02:27:41;;;;;;;18.83;13.27;;;;;;;4.02;100.00;96010.19;5022606;28;20537;-75
2022/03/29 02:30:10;;;;;;;24.83;13.70;;;;;;;3.86;100.00;96002.59;5034775;28;20442;-75
2022/03/29 02:32:37;;;;;;;19.60;14.47;;;;;;;3.63;100.00;96003.59;5025146;28;20947;-75
2022/03/29 02:35:04;;;;;;;18.40;12.40;;;;;;;2.97;100.00;95955.88;5011938;28;20457;-75
2022/03/29 02:37:31;;;;;;;20.93;12.60;;;;;;;3.16;100.00;95955.03;5012089;28;20540;-75
2022/03/29 02:39:57;;;;;;;19.13;11.47;;;;;;;2.79;100.00;95971.56;4998954;28;20440;-74
2022/03/29 02:42:24;;;;;;;19.37;12.60;;;;;;;3.37;100.00;95984.19;5023070;28;20983;-74
2022/03/29 02:44:51;;;;;;;19.37;11.90;;;;;;;3.20;100.00;95966.44;5012989;28;20433;-74
2022/03/29 02:47:18;;;;;;;21.37;12.50;;;;;;;2.57;100.00;95884.22;5001825;28;20541;-74
2022/03/29 02:49:44;;;;;;;21.97;13.93;;;;;;;3.13;100.00;95960.84;5041447;28;20430;-74
2022/03/29 02:52:11;;;;;;;25.60;14.77;;;;;;;3.24;100.00;95963.00;5021250;28;20477;-74
2022/03/29 02:54:38;;;;;;;18.93;15.23;;;;;;;3.03;100.00;95935.66;5018312;28;21274;-74
2022/03/29 02:57:05;;;;;;;18.67;15.93;;;;;;;2.88;100.00;95948.97;5031368;28;20436;-74
2022/03/29 02:59:31;;;;;;;24.10;16.00;;;;;;;2.49;100.00;95954.53;5027488;28;20491;-74
2022/03/29 03:01:58;;;;;;;25.43;15.67;;;;;;;2.78;100.00;95975.22;5011519;28;20437;-74
2022/03/29 03:04:25;;;;;;;19.60;16.27;;;;;;;2.78;100.00;95938.69;5029993;28;20466;-74
2022/03/29 03:06:52;;;;;;;19.80;15.60;;;;;;;3.28;100.00;95972.84;5020456;28;20832;-74
2022/03/29 03:09:18;;;;;;;23.37;15.77;;;;;;;3.00;100.00;95933.63;5012691;28;20432;-74
2022/03/29 03:11:45;;;;;;;31.07;14.53;;;;;;;2.80;100.00;95921.66;5023385;28;20436;-74
2022/03/29 03:14:11;;;;;;;27.00;15.43;;;;;;;2.77;100.00;95909.19;5013719;28;20428;-74
2022/03/29 03:16:38;;;;;;;24.40;15.30;;;;;;;2.79;100.00;95912.28;5022038;28;20464;-74
2022/03/29 03:19:25;;;;;;;21.20;15.83;;;;;;;2.99;100.00;95934.69;5005581;28;20827;-74
2022/03/29 03:21:51;;;;;;;19.80;15.70;;;;;;;3.24;100.00;95954.38;5030448;28;20519;-74
2022/03/29 03:24:18;;;;;;;22.23;16.57;;;;;;;2.95;100.00;95939.72;5011127;28;21056;-74
2022/03/29 03:26:44;;;;;;;26.40;16.50;;;;;;;3.04;100.00;95957.31;4995212;28;20475;-74
2022/03/29 03:29:11;;;;;;;29.13;16.10;;;;;;;2.59;100.00;95928.28;5007432;28;20532;-74
2022/03/29 03:31:38;;;;;;;25.80;15.27;;;;;;;2.96;100.00;95959.53;5025473;28;20427;-74
2022/03/29 03:34:04;;;;;;;30.17;15.47;;;;;;;3.04;100.00;95945.03;5043812;28;20922;-75
2022/03/29 03:36:31;;;;;;;25.63;16.47;;;;;;;3.10;100.00;95927.47;5025309;28;20467;-74
2022/03/29 03:38:58;;;;;;;27.77;15.53;;;;;;;3.33;100.00;95950.03;5022675;28;20535;-74
2022/03/29 03:41:24;;;;;;;21.90;15.20;;;;;;;3.08;100.00;95913.91;5012127;28;20455;-74
2022/03/29 03:43:51;;;;;;;23.20;14.30;;;;;;;3.14;100.00;95934.44;5030401;28;20503;-75
2022/03/29 03:46:18;;;;;;;18.27;13.50;;;;;;;3.17;100.00;95931.22;5028883;28;20547;-75
2022/03/29 03:48:44;;;;;;;24.67;13.00;;;;;;;2.97;100.00;95884.59;5010914;28;20548;-75
2022/03/29 03:51:11;;;;;;;22.43;13.80;;;;;;;3.18;100.00;95924.16;5025643;28;20519;-75
2022/03/29 03:53:38;;;;;;;15.50;12.70;;;;;;;2.49;100.00;95907.56;5030371;28;20511;-75
2022/03/29 03:56:04;;;;;;;18.87;13.00;;;;;;;2.13;100.00;95910.69;4999495;28;20551;-74
2022/03/29 03:58:31;;;;;;;21.70;14.57;;;;;;;2.53;100.00;95921.59;5021984;28;20458;-74
2022/03/29 04:01:03;;;;;;;20.60;12.23;;;;;;;2.81;100.00;95944.13;5010536;28;20437;-74
2022/03/29 04:03:30;;;;;;;21.83;13.00;;;;;;;2.36;100.00;95888.19;5010484;28;20495;-74
2022/03/29 04:05:57;;;;;;;19.53;13.10;;;;;;;2.69;100.00;95903.88;5029056;28;20509;-74
2022/03/29 04:08:24;;;;;;;18.10;12.93;;;;;;;2.91;100.00;95936.09;5030050;28;20843;-74
2022/03/29 04:10:50;;;;;;;16.33;13.43;;;;;;;2.90;100.00;95918.13;5017185;28;20462;-74
2022/03/29 04:13:17;;;;;;;21.60;13.30;;;;;;;3.03;100.00;95924.44;5020545;28;20467;-74
2022/03/29 04:15:43;;;;;;;21.80;16.63;;;;;;;2.74;100.00;95899.34;5026815;28;20460;-74
2022/03/29 04:18:10;;;;;;;17.23;13.30;;;;;;;2.80;100.00;95910.47;4994385;28;20480;-75
2022/03/29 04:20:37;;;;;;;18.77;12.87;;;;;;;2.76;100.00;95906.88;5030062;28;20436;-74
2022/03/29 04:23:04;;;;;;;20.07;14.80;;;;;;;2.58;100.00;95895.44;5031566;28;20554;-74
2022/03/29 04:25:31;;;;;;;18.93;13.30;;;;;;;2.57;100.00;95910.31;5030090;28;20552;-74
2022/03/29 04:27:57;;;;;;;21.50;12.80;;;;;;;2.60;100.00;95935.84;5030415;28;21036;-74
2022/03/29 04:30:24;;;;;;;18.70;14.03;;;;;;;2.57;100.00;95928.56;5030084;28;20440;-74
2022/03/29 04:32:51;;;;;;;21.90;16.00;;;;;;;2.71;100.00;95926.00;5024489;28;20428;-74
2022/03/29 04:35:17;;;;;;;21.93;14.37;;;;;;;2.59;100.00;95925.69;5014966;28;20491;-74
2022/03/29 04:37:44;;;;;;;16.30;14.23;;;;;;;2.61;100.00;95929.56;5030158;28;20982;-74
2022/03/29 04:40:12;;;;;;;24.23;14.23;;;;;;;2.40;100.00;95889.16;5013539;28;20432;-74
2022/03/29 04:42:43;;;;;;;27.07;13.27;;;;;;;2.64;100.00;95933.41;5029978;28;20439;-74
2022/03/29 04:45:12;;;;;;;21.37;14.10;;;;;;;2.70;100.00;95927.06;5029722;28;20470;-74
2022/03/29 04:47:40;;;;;;;28.20;14.53;;;;;;;2.51;100.00;95931.53;5029778;28;20960;-74
2022/03/29 04:50:08;;;;;;;21.90;13.50;;;;;;;2.23;100.00;95913.16;5024058;28;20536;-74
2022/03/29 04:52:36;;;;;;;22.13;13.00;;;;;;;1.78;100.00;95870.25;5022378;28;20534;-74
2022/03/29 04:55:02;;;;;;;23.73;12.77;;;;;;;2.01;100.00;95884.28;5031028;28;20479;-74
2022/03/29 04:57:29;;;;;;;21.97;12.43;;;;;;;2.06;100.00;95911.03;5029898;28;20526;-74
2022/03/29 04:59:56;;;;;;;22.63;12.63;;;;;;;1.97;100.00;95911.94;5029961;28;20444;-74
2022/03/29 05:02:23;;;;;;;16.83;13.30;;;;;;;1.63;100.00;95891.28;5030177;28;20479;-74
2022/03/29 05:04:51;;;;;;;25.13;13.63;;;;;;;2.03;100.00;95916.84;5030779;28;20472;-74
2022/03/29 05:07:18;;;;;;;29.57;14.90;;;;;;;2.11;100.00;95904.97;5029729;28;20444;-74
2022/03/29 05:09:44;;;;;;;31.33;18.40;;;;;;;2.12;100.00;95905.75;5029378;28;21005;-74
2022/03/29 05:12:11;;;;;;;24.33;16.57;;;;;;;1.50;100.00;95864.09;5029749;28;20518;-74
2022/03/29 05:14:38;;;;;;;17.87;12.60;;;;;;;2.01;100.00;95916.34;5029683;28;20436;-74
2022/03/29 05:17:04;;;;;;;24.53;13.87;;;;;;;1.79;100.00;95897.84;5032486;28;20542;-74
2022/03/29 05:19:31;;;;;;;20.60;12.37;;;;;;;1.82;100.00;95920.75;5033627;28;20447;-74
2022/03/29 05:21:58;;;;;;;25.27;14.30;;;;;;;1.57;100.00;95913.22;5033568;28;20495;-75
2022/03/29 05:24:25;;;;;;;36.53;14.90;;;;;;;1.44;100.00;95888.63;5033639;28;21200;-75
2022/03/29 05:26:51;;;;;;;20.17;13.43;;;;;;;1.51;100.00;95896.91;5033176;28;20452;-73
2022/03/29 05:29:18;;;;;;;19.60;12.10;;;;;;;2.01;100.00;95915.56;5026880;28;20864;-72
2022/03/29 05:31:45;;;;;;;19.30;14.30;;;;;;;1.88;100.00;95866.75;5015641;28;20425;-72
2022/03/29 05:34:16;;;;;;;22.50;14.33;;;;;;;1.70;100.00;95869.03;5015762;28;20437;-72
2022/03/29 05:36:45;;;;;;;19.37;12.20;;;;;;;2.00;100.00;95901.75;5016139;28;20459;-72
2022/03/29 05:39:15;;;;;;;18.33;12.47;;;;;;;2.20;100.00;95921.53;5034478;28;20958;-72
2022/03/29 05:41:42;;;;;;;22.67;13.73;;;;;;;2.10;100.00;95921.69;5032911;28;20434;-73
2022/03/29 05:44:09;;;;;;;13.70;11.80;;;;;;;2.00;100.00;95887.91;5016573;28;20550;-73
2022/03/29 05:49:21;;;;;;;20.97;11.00;;;;;;;2.03;100.00;95851.66;5059827;28;20443;-72
2022/03/29 05:51:49;;;;;;;22.00;13.97;;;;;;;2.32;100.00;95897.66;5032789;28;20531;-73
2022/03/29 05:54:17;;;;;;;21.57;13.47;;;;;;;2.60;100.00;95925.41;5016314;28;20527;-73
2022/03/29 05:56:44;;;;;;;18.70;12.03;;;;;;;2.32;100.00;95897.66;5033975;28;20478;-73
2022/03/29 05:59:10;;;;;;;25.33;14.47;;;;;;;2.60;100.00;95898.53;5016141;28;20534;-73
2022/03/29 06:01:38;;;;;;;17.23;12.00;;;;;;;2.64;100.00;95907.31;5016166;28;20487;-73
2022/03/29 06:04:07;;;;;;;16.47;11.60;;;;;;;2.46;100.00;95897.69;5065842;28;20568;-73
2022/03/29 06:06:36;;;;;;;16.47;12.30;;;;;;;2.81;100.00;95904.19;5023858;28;20460;-73
2022/03/29 06:09:04;;;;;;;17.00;12.13;;;;;;;2.89;100.00;95896.47;5025893;28;20443;-73
2022/03/29 06:11:30;;;;;;;20.73;12.73;;;;;;;2.85;100.00;95882.44;5013693;28;20543;-73
2022/03/29 06:13:57;;;;;;;18.27;12.80;;;;;;;3.03;100.00;95914.00;5031567;28;20431;-73
2022/03/29 06:16:24;;;;;;;19.33;12.33;;;;;;;2.74;100.00;95867.25;5032263;28;20495;-73
2022/03/29 06:18:51;;;;;;;15.77;11.40;;;;;;;2.66;100.00;95868.66;5033478;28;20429;-73
2022/03/29 06:21:18;;;;;;;26.57;13.97;;;;;;;2.63;100.00;95903.16;5022645;28;20531;-73
2022/03/29 06:23:45;;;;;;;21.90;12.40;;;;;;;3.06;100.00;95900.34;5048590;28;20550;-73
2022/03/29 06:26:15;;;;;;;22.90;14.50;;;;;;;3.24;100.00;95905.53;5031793;28;21008;-72
2022/03/29 06:28:42;;;;;;;34.47;13.90;;;;;;;3.35;100.00;95903.50;5019289;28;20427;-73
2022/03/29 06:31:09;;;;;;;21.70;13.93;;;;;;;3.20;100.00;95891.47;5033298;28;20451;-73
2022/03/29 06:33:36;;;;;;;18.57;14.70;;;;;;;3.56;100.00;95915.09;5015863;28;20429;-73
2022/03/29 06:36:03;;;;;;;20.60;15.30;;;;;;;3.75;100.00;95914.22;5028424;28;20587;-73
2022/03/29 06:38:31;;;;;;;15.10;12.13;;;;;;;3.64;100.00;95894.59;5011909;28;20445;-72
2022/03/29 06:40:59;;;;;;;21.30;15.50;;;;;;;3.95;100.00;95920.88;5037333;28;20435;-73
2022/03/29 06:43:26;;;;;;;23.33;14.80;;;;;;;3.86;100.00;95911.09;5031613;28;20436;-72
2022/03/29 06:45:53;;;;;;;17.20;12.77;;;;;;;3.99;100.00;95911.38;5031549;28;20469;-73
2022/03/29 06:48:19;;;;;;;18.27;14.43;;;;;;;3.95;100.00;95908.56;5013320;28;20437;-73
2022/03/29 06:50:46;;;;;;;23.50;14.60;;;;;;;3.89;100.00;95886.22;5023778;28;20532;-73
2022/03/29 06:53:13;;;;;;;27.73;17.50;;;;;;;3.98;100.00;95915.81;5031584;28;20464;-73
2022/03/29 06:55:39;;;;;;;24.03;15.80;;;;;;;3.93;100.00;95897.63;5031523;28;20505;-73
2022/03/29 06:58:06;;;;;;;17.40;13.83;;;;;;;4.29;100.00;95909.97;5031508;28;20437;-73
2022/03/29 07:00:34;;;;;;;19.17;15.73;;;;;;;4.42;100.00;95894.19;5019014;28;20958;-73
2022/03/29 07:03:01;;;;;;;17.30;13.40;;;;;;;4.51;100.00;95888.25;5044715;28;20432;-74
2022/03/29 07:05:28;;;;;;;26.50;15.63;;;;;;;4.81;100.00;95920.78;5025805;28;20507;-73
2022/03/29 07:07:54;;;;;;;21.27;15.10;;;;;;;4.70;100.00;95894.09;5012006;28;20437;-74
2022/03/29 07:13:06;;;;;;;21.73;15.03;;;;;;;4.90;100.00;95872.63;5032641;28;20824;-74
2022/03/29 07:15:33;;;;;;;21.27;17.03;;;;;;;4.73;100.00;95868.06;5030319;28;20448;-74
2022/03/29 07:17:59;;;;;;;24.33;13.30;;;;;;;5.06;100.00;95891.34;5022917;28;20519;-74
2022/03/29 07:20:27;;;;;;;25.80;15.60;;;;;;;5.29;100.00;95887.59;5015041;28;20455;-73
2022/03/29 07:22:56;;;;;;;17.07;14.07;;;;;;;5.69;100.00;95903.28;5031293;28;20443;-73
2022/03/29 07:25:25;;;;;;;17.77;14.43;;;;;;;5.92;100.00;95909.25;4997934;28;20487;-74
2022/03/29 07:27:54;;;;;;;18.30;16.03;;;;;;;5.94;100.00;95899.22;5001506;28;20434;-74
2022/03/29 07:30:22;;;;;;;18.37;14.00;;;;;;;6.11;100.00;95880.84;5024645;28;20461;-74
2022/03/29 07:32:52;;;;;;;18.47;13.77;;;;;;;6.18;100.00;95906.66;5016158;28;20443;-74
2022/03/29 07:35:20;;;;;;;17.80;14.00;;;;;;;6.27;100.00;95898.78;5022972;28;20559;-74
2022/03/29 07:37:48;;;;;;;13.97;11.80;;;;;;;6.53;100.00;95892.44;5033744;28;20960;-74
2022/03/29 07:40:17;;;;;;;19.37;14.17;;;;;;;6.42;100.00;95895.69;5017367;28;20543;-73
2022/03/29 07:42:44;;;;;;;22.73;14.83;;;;;;;6.58;100.00;95886.25;5030705;28;20957;-74
2022/03/29 07:45:12;;;;;;;16.57;13.70;;;;;;;6.77;100.00;95889.31;5017415;28;20476;-73
2022/03/29 07:47:43;;;;;;;24.20;15.50;;;;;;;6.92;100.00;95903.03;5030805;28;20433;-74
2022/03/29 07:50:34;;;;;;;17.23;13.67;;;;;;;7.08;100.00;95881.22;5010037;28;20429;-74
2022/03/29 07:53:05;;;;;;;23.77;12.70;;;;;;;7.23;100.00;95908.84;5030664;28;20443;-74
2022/03/29 07:55:33;;;;;;;17.50;12.47;;;;;;;7.05;100.00;95866.06;5031880;28;20474;-74
2022/03/29 07:58:09;;;;;;;20.53;12.83;;;;;;;7.37;100.00;95869.19;5030620;28;20458;-74
2022/03/29 08:00:36;;;;;;;25.20;12.47;;;;;;;7.43;100.00;95894.22;5030207;28;20781;-74
2022/03/29 08:03:06;;;;;;;16.83;13.20;;;;;;;7.52;100.00;95902.09;5011267;28;20976;-74
2022/03/29 08:05:34;;;;;;;16.23;12.33;;;;;;;7.46;100.00;95900.69;5025090;28;20533;-74
2022/03/29 08:08:02;;;;;;;23.70;13.80;;;;;;;7.48;100.00;95901.94;5030265;28;20991;-74
2022/03/29 08:10:30;;;;;;;18.97;13.77;;;;;;;7.53;100.00;95896.50;5031403;28;20975;-74
2022/03/29 08:12:59;;;;;;;18.53;12.20;;;;;;;7.35;100.00;95885.28;5030218;28;20436;-74
2022/03/29 08:15:28;;;;;;;16.70;12.90;;;;;;;7.39;100.00;95877.53;5031312;28;20475;-74
2022/03/29 08:18:00;;;;;;;19.23;14.03;;;;;;;7.83;100.00;95904.41;5030155;28;20475;-74
2022/03/29 08:20:29;;;;;;;15.10;12.13;;;;;;;7.88;100.00;95883.94;5014231;28;20969;-74
2022/03/29 08:23:00;;;;;;;18.47;13.80;;;;;;;8.05;100.00;95874.38;5010246;28;20452;-74
2022/03/29 08:25:29;;;;;;;21.70;12.70;;;;;;;8.09;100.00;95886.59;5028387;28;20491;-74
2022/03/29 08:27:57;;;;;;;19.90;13.50;;;;;;;8.57;100.00;95891.34;5020641;28;20430;-74
2022/03/29 08:30:25;;;;;;;16.33;11.63;;;;;;;8.83;96.13;95895.63;5011490;28;20436;-74
2022/03/29 08:32:53;;;;;;;21.40;14.33;;;;;;;8.96;95.82;95899.84;5015682;28;20441;-74
2022/03/29 08:35:27;;;;;;;19.97;13.30;;;;;;;8.78;94.88;95861.53;5017280;28;20452;-74
2022/03/29 08:37:53;;;;;;;17.67;12.03;;;;;;;8.64;92.00;95837.34;5018727;28;20471;-74
2022/03/29 08:40:44;;;;;;;18.30;12.20;;;;;;;9.03;93.52;95891.38;5024912;28;20444;-74
2022/03/29 08:43:11;;;;;;;20.47;12.70;;;;;;;9.18;91.97;95893.38;5033117;28;20790;-74
2022/03/29 08:45:40;;;;;;;14.13;11.13;;;;;;;8.98;93.24;95879.19;5029762;28;20557;-74
2022/03/29 08:48:08;;;;;;;18.83;12.73;;;;;;;9.30;91.02;95887.34;5031088;28;20561;-74
2022/03/29 08:50:37;;;;;;;17.93;12.80;;;;;;;9.40;88.33;95866.59;5019658;28;20437;-74
2022/03/29 08:53:06;;;;;;;17.93;11.70;;;;;;;9.05;91.50;95852.25;5030594;28;20441;-74
2022/03/29 08:55:33;;;;;;;18.90;12.50;;;;;;;9.11;92.59;95888.66;5014167;28;20572;-74
2022/03/29 08:58:00;;;;;;;16.30;14.00;;;;;;;9.20;94.89;95880.63;5030510;28;20433;-74
2022/03/29 09:00:27;;;;;;;22.77;15.20;;;;;;;8.82;94.32;95821.06;5026064;28;20497;-74
2022/03/29 09:02:54;;;;;;;18.63;13.90;;;;;;;9.16;91.69;95850.75;5035001;28;20467;-74
2022/03/29 09:05:23;;;;;;;15.90;12.47;;;;;;;9.04;90.99;95793.50;5034936;28;20997;-74
2022/03/29 09:07:50;;;;;;;22.20;12.37;;;;;;;9.41;91.80;95881.31;5033568;28;20447;-74
2022/03/29 09:10:19;;;;;;;15.17;12.50;;;;;;;9.65;91.08;95877.16;5034753;28;20448;-74
2022/03/29 09:12:47;;;;;;;17.23;14.07;;;;;;;9.60;91.68;95880.78;5035048;28;20523;-74
2022/03/29 09:15:14;;;;;;;19.13;12.53;;;;;;;9.25;91.53;95832.19;5019954;28;20449;-74
2022/03/29 09:17:46;;;;;;;17.30;13.50;;;;;;;9.76;90.03;95872.97;5022231;28;20512;-74
2022/03/29 09:20:21;;;;;;;23.13;15.80;;;;;;;9.62;93.38;95869.91;5032068;28;20478;-74
2022/03/29 09:22:53;;;;;;;17.83;13.23;;;;;;;9.86;92.71;95866.44;5046557;28;20425;-74
2022/03/29 09:25:34;;;;;;;19.03;12.97;;;;;;;9.81;94.71;95850.84;5031617;28;20503;-74
2022/03/29 09:28:05;;;;;;;17.53;13.40;;;;;;;10.05;92.42;95871.94;5033338;28;20543;-74
2022/03/29 09:30:38;;;;;;;20.20;14.77;;;;;;;9.54;93.09;95796.88;5021417;28;20526;-74
2022/03/29 09:33:15;;;;;;;16.90;13.37;;;;;;;10.37;92.05;95886.06;5026673;28;20458;-74
2022/03/29 09:35:58;;;;;;;18.50;14.20;;;;;;;10.49;91.47;95880.75;5001935;28;20457;-74
2022/03/29 09:38:33;;;;;;;21.60;13.33;;;;;;;10.74;94.79;95872.72;5016701;28;20536;-74
2022/03/29 09:41:02;;;;;;;15.13;12.20;;;;;;;11.05;89.66;95867.47;5033172;28;20810;-74
2022/03/29 09:44:01;;;;;;;23.43;14.20;;;;;;;10.93;91.24;95835.81;5029316;28;20441;-74
2022/03/29 09:46:27;;;;;;;28.00;14.07;;;;;;;10.94;90.63;95851.34;5033030;28;20445;-74
2022/03/29 09:49:03;;;;;;;15.60;13.00;;;;;;;11.13;89.92;95836.69;5032966;28;20440;-74
2022/03/29 09:51:30;;;;;;;19.27;14.00;;;;;;;11.15;90.11;95859.03;5033191;28;20435;-74
2022/03/29 09:53:59;;;;;;;19.63;12.80;;;;;;;11.33;89.81;95858.69;5023743;28;20520;-74
2022/03/29 09:56:29;;;;;;;23.33;13.80;;;;;;;11.33;87.01;95851.53;5014150;28;20484;-74
2022/03/29 09:59:16;;;;;;;20.73;14.30;;;;;;;11.24;87.46;95845.66;5015159;28;20430;-74
2022/03/29 10:01:54;;;;;;;23.90;14.00;;;;;;;11.64;87.37;95839.41;5033287;28;20424;-74
2022/03/29 10:04:23;;;;;;;18.60;13.17;;;;;;;12.00;87.04;95841.72;5035356;28;20442;-74
2022/03/29 10:06:54;;;;;;;19.90;13.30;;;;;;;12.04;85.61;95844.44;5024261;28;20454;-74
2022/03/29 10:09:27;;;;;;;18.40;13.87;;;;;;;11.67;83.47;95830.75;5014082;28;20768;-74
2022/03/29 10:12:05;;;;;;;21.70;16.00;;;;;;;11.76;87.58;95832.09;5025348;28;20926;-74
2022/03/29 10:14:44;;;;;;;19.37;15.70;;;;;;;11.95;87.90;95818.16;5014366;28;20434;-74
2022/03/29 10:17:13;;;;;;;23.50;14.67;;;;;;;12.36;86.30;95819.34;5046693;28;20434;-75
2022/03/29 10:19:41;;;;;;;24.43;17.93;;;;;;;12.34;85.28;95820.81;5032630;28;20451;-74
2022/03/29 10:22:08;;;;;;;36.63;17.77;;;;;;;12.44;86.47;95796.41;5033601;28;20850;-74
2022/03/29 10:24:35;;;;;;;24.27;18.20;;;;;;;12.60;88.85;95818.28;5032383;28;20467;-74
2022/03/29 10:27:03;;;;;;;35.23;21.40;;;;;;;12.30;90.22;95780.22;5032141;28;20456;-74
2022/03/29 10:29:31;;;;;;;22.70;18.87;;;;;;;12.31;89.88;95747.31;5032457;28;20429;-74
2022/03/29 10:32:05;;;;;;;25.77;20.50;;;;;;;12.94;89.98;95797.25;5029783;28;20473;-74
2022/03/29 10:34:42;;;;;;;28.10;20.80;;;;;;;12.83;92.28;95799.75;5013603;28;20463;-73
2022/03/29 10:37:11;;;;;;;27.70;17.13;;;;;;;12.94;88.55;95803.31;5020511;28;20422;-74
2022/03/29 10:40:04;;;;;;;26.47;19.07;;;;;;;12.81;86.27;95801.19;5031952;28;20434;-74
2022/03/29 10:42:41;;;;;;;26.00;16.40;;;;;;;12.77;87.88;95795.84;5017300;28;20441;-74
2022/03/29 10:45:16;;;;;;;24.80;17.87;;;;;;;12.67;87.33;95791.88;5026395;28;20487;-74
2022/03/29 10:48:09;;;;;;;26.10;18.60;;;;;;;13.09;86.99;95787.63;5027142;28;20487;-74
2022/03/29 10:50:57;;;;;;;26.00;18.67;;;;;;;12.99;87.09;95789.78;5023061;28;20419;-75
2022/03/29 10:53:35;;;;;;;22.60;17.60;;;;;;;13.44;84.23;95788.22;5006766;28;20856;-76
2022/03/29 10:56:11;;;;;;;26.60;20.80;;;;;;;13.47;83.67;95792.03;5031755;28;20465;-74
2022/03/29 10:59:02;;;;;;;24.10;18.57;;;;;;;13.32;83.26;95786.53;5033074;28;20426;-74
2022/03/29 11:01:30;;;;;;;22.93;19.57;;;;;;;13.33;85.62;95779.31;5007568;28;20426;-74
2022/03/29 11:04:00;;;;;;;27.80;19.70;;;;;;;13.25;83.32;95783.00;5033844;28;20429;-74
2022/03/29 11:06:27;;;;;;;27.27;20.20;;;;;;;13.26;81.46;95742.81;5025967;28;20473;-74
2022/03/29 11:09:18;;;;;;;32.90;21.63;;;;;;;13.37;82.17;95777.50;5013733;28;20469;-74
2022/03/29 11:11:47;;;;;;;26.50;20.67;;;;;;;13.48;81.31;95777.63;5025722;28;20450;-74
2022/03/29 11:14:34;;;;;;;26.17;19.03;;;;;;;13.17;81.41;95773.38;5029735;28;20434;-73
2022/03/29 11:17:01;;;;;;;37.23;22.10;;;;;;;13.53;82.05;95767.50;5030171;28;20456;-74
2022/03/29 11:19:48;;;;;;;26.00;20.90;;;;;;;13.78;80.44;95769.72;5012058;28;20813;-73
2022/03/29 11:22:25;;;;;;;31.53;20.57;;;;;;;13.76;80.23;95770.09;4998899;28;20465;-73
2022/03/29 11:24:55;;;;;;;32.07;22.83;;;;;;;13.19;80.25;95744.59;5024230;28;20540;-73
2022/03/29 11:27:34;;;;;;;42.90;25.10;;;;;;;13.81;80.27;95761.78;5013188;28;20427;-74
2022/03/29 11:30:05;;;;;;;33.13;23.30;;;;;;;13.56;81.13;95704.91;5016109;28;20431;-74
2022/03/29 11:32:34;;;;;;;28.77;21.03;;;;;;;14.11;80.11;95742.38;5030020;28;20455;-74